Time;durP1;ratioP1;P1;durP2;ratioP2;P2;SDS_P1;SDS_P2;PMS_P1;PMS_P2;Temp;Humidity;BMP_temperature;BMP_pressure;BME280_temperature;BME280_humidity;BME280_pressure;Samples;Min_cycle;Max_cycle;Signal;HPM_P1;HPM_P2
2023/09/09 00:00:43;;;;;;;17.07;12.70;;;16.00;48.80;;;;;;5047410;28;46258;-71
2023/09/09 00:03:08;;;;;;;20.60;13.43;;;16.00;48.90;;;;;;5045840;28;46340;-72
2023/09/09 00:05:34;;;;;;;20.30;13.10;;;16.00;48.90;;;;;;5029645;28;46850;-71
2023/09/09 00:08:00;;;;;;;17.17;12.13;;;16.00;49.00;;;;;;5033449;28;46471;-72
2023/09/09 00:10:26;;;;;;;19.00;13.17;;;15.90;49.00;;;;;;5033667;28;46406;-72
2023/09/09 00:12:51;;;;;;;20.00;12.70;;;15.90;49.20;;;;;;5035965;28;46406;-72
2023/09/09 00:15:17;;;;;;;24.03;12.93;;;15.80;49.40;;;;;;5030907;28;46378;-72
2023/09/09 00:17:43;;;;;;;16.70;13.00;;;15.80;49.50;;;;;;5030692;28;47695;-71
2023/09/09 00:20:12;;;;;;;21.70;12.40;;;15.70;49.70;;;;;;5033338;28;46374;-70
2023/09/09 00:22:38;;;;;;;22.67;13.40;;;15.60;50.00;;;;;;5049189;28;46750;-71
2023/09/09 00:25:05;;;;;;;17.97;13.40;;;15.60;50.10;;;;;;5033876;28;46463;-72
2023/09/09 00:27:31;;;;;;;19.60;13.40;;;15.60;50.20;;;;;;5033356;28;47868;-71
2023/09/09 00:29:56;;;;;;;19.77;13.03;;;15.60;50.20;;;;;;5046399;28;46331;-71
2023/09/09 00:32:22;;;;;;;19.10;13.10;;;15.50;50.10;;;;;;5032449;28;46418;-71
2023/09/09 00:34:48;;;;;;;17.83;12.40;;;15.50;50.30;;;;;;5039658;28;46841;-71
2023/09/09 00:37:13;;;;;;;22.47;13.40;;;15.50;50.20;;;;;;5033583;28;46373;-70
2023/09/09 00:39:39;;;;;;;18.30;13.10;;;15.50;50.10;;;;;;5031655;28;46495;-70
2023/09/09 00:42:05;;;;;;;17.27;12.90;;;15.50;50.10;;;;;;5033563;28;46386;-70
2023/09/09 00:44:31;;;;;;;18.47;13.10;;;15.50;50.00;;;;;;5033052;28;46699;-71
2023/09/09 00:46:57;;;;;;;20.17;12.87;;;15.50;49.80;;;;;;5031823;28;48940;-71
2023/09/09 00:49:23;;;;;;;19.50;13.50;;;15.60;49.80;;;;;;5046043;28;46505;-70
2023/09/09 00:51:49;;;;;;;20.40;13.00;;;15.60;49.70;;;;;;5031855;28;46457;-71
2023/09/09 00:54:15;;;;;;;20.60;12.77;;;15.60;49.50;;;;;;5033882;28;46763;-71
2023/09/09 00:56:42;;;;;;;16.53;12.70;;;15.60;49.40;;;;;;5031074;28;46591;-70
2023/09/09 00:59:10;;;;;;;16.97;12.10;;;15.60;49.50;;;;;;5033606;28;46384;-71
2023/09/09 01:01:36;;;;;;;18.40;13.03;;;15.70;49.40;;;;;;5030371;28;46838;-70
2023/09/09 01:04:03;;;;;;;21.30;12.23;;;15.60;49.40;;;;;;5027744;28;46505;-70
2023/09/09 01:06:28;;;;;;;15.83;11.40;;;15.60;49.50;;;;;;5032675;28;47344;-72
2023/09/09 01:08:54;;;;;;;17.27;11.40;;;15.60;49.50;;;;;;5033650;28;46780;-71
2023/09/09 01:11:20;;;;;;;17.40;11.70;;;15.60;49.40;;;;;;5033366;28;46379;-70
2023/09/09 01:13:45;;;;;;;18.03;11.10;;;15.60;49.30;;;;;;5049515;28;46423;-72
2023/09/09 01:16:12;;;;;;;20.20;10.17;;;15.50;49.40;;;;;;5031669;28;47890;-72
2023/09/09 01:18:38;;;;;;;13.10;10.17;;;15.50;49.50;;;;;;5030091;28;46752;-69
2023/09/09 01:21:08;;;;;;;16.80;11.70;;;15.40;49.70;;;;;;5037661;28;46731;-71
2023/09/09 01:23:35;;;;;;;28.57;12.40;;;15.30;49.90;;;;;;5031859;28;47279;-71
2023/09/09 01:26:01;;;;;;;17.27;12.60;;;15.30;49.80;;;;;;5030532;28;48624;-71
2023/09/09 01:28:27;;;;;;;32.47;12.13;;;15.20;49.80;;;;;;5030935;28;46559;-72
2023/09/09 01:30:53;;;;;;;17.33;12.17;;;15.20;50.00;;;;;;5030583;28;46461;-69
2023/09/09 01:33:18;;;;;;;19.03;12.30;;;15.20;50.10;;;;;;5032409;28;46441;-70
2023/09/09 01:35:46;;;;;;;16.33;11.93;;;15.10;50.20;;;;;;5046018;28;47031;-70
2023/09/09 01:38:12;;;;;;;21.00;12.43;;;15.10;50.30;;;;;;5031368;28;45887;-72
2023/09/09 01:40:38;;;;;;;20.20;12.37;;;15.00;50.30;;;;;;5046831;28;46327;-70
2023/09/09 01:43:04;;;;;;;21.33;13.33;;;15.00;50.60;;;;;;5031124;28;46692;-70
2023/09/09 01:45:29;;;;;;;22.70;14.37;;;15.00;50.60;;;;;;5047905;28;46945;-72
2023/09/09 01:47:55;;;;;;;21.27;14.90;;;15.10;50.60;;;;;;5031963;28;46362;-71
2023/09/09 01:50:21;;;;;;;25.03;16.60;;;15.10;50.50;;;;;;5031307;28;46422;-72
2023/09/09 01:52:47;;;;;;;21.00;15.10;;;15.10;50.50;;;;;;5030511;28;46824;-72
2023/09/09 01:55:12;;;;;;;20.03;15.77;;;15.10;50.60;;;;;;5031850;28;47935;-69
2023/09/09 01:57:38;;;;;;;23.43;15.67;;;15.10;50.80;;;;;;5031600;28;46431;-71
2023/09/09 02:00:08;;;;;;;24.80;16.70;;;15.10;50.90;;;;;;5035303;28;46474;-69
2023/09/09 02:02:34;;;;;;;25.73;15.90;;;15.10;51.10;;;;;;5037896;28;46504;-70
2023/09/09 02:04:59;;;;;;;20.70;15.00;;;15.00;51.20;;;;;;5033204;28;46276;-70
2023/09/09 02:07:25;;;;;;;27.30;15.70;;;15.00;51.50;;;;;;5048314;28;46757;-71
2023/09/09 02:09:51;;;;;;;27.77;14.50;;;15.00;51.90;;;;;;5048470;28;46409;-70
2023/09/09 02:12:16;;;;;;;23.70;15.63;;;14.90;52.30;;;;;;5032159;28;46781;-71
2023/09/09 02:14:42;;;;;;;20.07;15.43;;;14.90;52.70;;;;;;5030616;28;48184;-71
2023/09/09 02:17:08;;;;;;;23.10;15.67;;;14.90;52.70;;;;;;5036029;28;46658;-72
2023/09/09 02:19:34;;;;;;;28.17;16.73;;;14.90;52.80;;;;;;5030712;28;46349;-71
2023/09/09 02:21:59;;;;;;;27.53;16.03;;;14.90;52.80;;;;;;5036863;28;46768;-72
2023/09/09 02:24:25;;;;;;;25.33;14.67;;;14.90;52.70;;;;;;5048053;28;46425;-70
2023/09/09 02:26:51;;;;;;;22.33;16.10;;;15.00;52.90;;;;;;5027006;28;46273;-70
2023/09/09 02:29:17;;;;;;;18.77;13.97;;;15.00;53.00;;;;;;5030180;28;46638;-71
2023/09/09 02:31:43;;;;;;;25.40;15.53;;;14.90;52.90;;;;;;5029358;28;47641;-72
2023/09/09 02:34:08;;;;;;;21.70;15.40;;;15.00;53.00;;;;;;5028241;28;47840;-71
2023/09/09 02:36:34;;;;;;;16.23;12.80;;;14.90;52.80;;;;;;5031211;28;46626;-70
2023/09/09 02:39:00;;;;;;;23.10;14.77;;;15.00;53.00;;;;;;5037418;28;46548;-70
2023/09/09 02:41:25;;;;;;;21.50;13.80;;;14.90;53.10;;;;;;5030852;28;46446;-70
2023/09/09 02:43:51;;;;;;;18.77;13.47;;;14.80;53.30;;;;;;5040613;28;48137;-71
2023/09/09 02:46:17;;;;;;;22.80;15.57;;;14.70;53.60;;;;;;5030014;28;46486;-70
2023/09/09 02:48:43;;;;;;;23.03;13.60;;;14.70;54.00;;;;;;5028855;28;46662;-70
2023/09/09 02:51:09;;;;;;;20.70;14.53;;;14.60;54.40;;;;;;5033244;28;46447;-70
2023/09/09 02:53:34;;;;;;;19.97;13.83;;;14.60;54.40;;;;;;5036585;28;46623;-70
2023/09/09 02:56:00;;;;;;;25.57;14.00;;;14.60;54.40;;;;;;5033421;28;46413;-70
2023/09/09 02:58:26;;;;;;;23.00;14.77;;;14.60;54.40;;;;;;5046240;28;46409;-69
2023/09/09 03:00:51;;;;;;;23.07;14.53;;;14.70;54.40;;;;;;5036850;28;46367;-71
2023/09/09 03:03:20;;;;;;;23.67;13.33;;;14.70;54.20;;;;;;5029110;28;47776;-72
2023/09/09 03:05:45;;;;;;;22.67;14.43;;;14.70;53.90;;;;;;5026848;28;46454;-70
2023/09/09 03:08:11;;;;;;;19.97;15.57;;;14.80;53.90;;;;;;5036612;28;46538;-70
2023/09/09 03:10:37;;;;;;;20.20;14.57;;;14.80;53.90;;;;;;5029068;28;46736;-71
2023/09/09 03:13:03;;;;;;;23.03;16.37;;;14.70;54.00;;;;;;5029181;28;47821;-71
2023/09/09 03:15:32;;;;;;;22.40;15.80;;;14.80;54.00;;;;;;5029211;28;46349;-70
2023/09/09 03:17:57;;;;;;;25.33;17.03;;;14.80;53.90;;;;;;5043344;28;46465;-69
2023/09/09 03:20:23;;;;;;;23.20;17.10;;;14.80;53.80;;;;;;5027567;28;46517;-71
2023/09/09 03:22:49;;;;;;;21.40;16.97;;;14.80;54.20;;;;;;5027655;28;47837;-70
2023/09/09 03:25:15;;;;;;;22.13;15.27;;;14.80;54.20;;;;;;5031603;28;46417;-70
2023/09/09 03:27:40;;;;;;;24.37;15.03;;;14.80;54.20;;;;;;5031114;28;46810;-71
2023/09/09 03:30:06;;;;;;;22.23;16.13;;;14.90;54.20;;;;;;5028921;28;46734;-70
2023/09/09 03:32:32;;;;;;;22.17;14.33;;;14.80;54.10;;;;;;5029444;28;48846;-69
2023/09/09 03:34:58;;;;;;;19.53;14.30;;;14.80;54.00;;;;;;5034254;28;46452;-70
2023/09/09 03:37:23;;;;;;;21.80;14.20;;;14.80;54.20;;;;;;5044107;28;46153;-70
2023/09/09 03:39:50;;;;;;;19.23;12.83;;;14.80;54.40;;;;;;5037468;28;46478;-70
2023/09/09 03:42:15;;;;;;;24.80;16.30;;;14.70;54.50;;;;;;5030624;28;47655;-70
2023/09/09 03:44:41;;;;;;;34.27;17.70;;;14.60;54.70;;;;;;5030228;28;46508;-70
2023/09/09 03:47:07;;;;;;;23.67;16.60;;;14.50;55.30;;;;;;5031649;28;46514;-71
2023/09/09 03:49:33;;;;;;;27.13;16.93;;;14.50;55.70;;;;;;5031037;28;46466;-70
2023/09/09 03:51:58;;;;;;;21.70;15.10;;;14.50;55.90;;;;;;5036375;28;48125;-69
2023/09/09 03:54:24;;;;;;;27.83;16.47;;;14.50;55.80;;;;;;5036810;28;46519;-69
2023/09/09 03:56:50;;;;;;;21.20;16.13;;;14.50;55.70;;;;;;5029350;28;46707;-69
2023/09/09 03:59:16;;;;;;;22.07;15.30;;;14.50;55.80;;;;;;5047971;28;46470;-71
2023/09/09 04:01:42;;;;;;;29.50;17.70;;;14.50;55.80;;;;;;5030450;28;47890;-70
2023/09/09 04:04:07;;;;;;;23.33;15.80;;;14.50;55.80;;;;;;5033859;28;46458;-70
2023/09/09 04:06:33;;;;;;;27.30;15.80;;;14.40;55.70;;;;;;5034486;28;46346;-69
2023/09/09 04:08:59;;;;;;;27.03;15.90;;;14.40;55.70;;;;;;5032926;28;46482;-70
2023/09/09 04:11:24;;;;;;;20.70;14.63;;;14.30;55.60;;;;;;5032214;28;47827;-71
2023/09/09 04:13:50;;;;;;;26.40;16.70;;;14.30;55.60;;;;;;5033140;28;46490;-69
2023/09/09 04:16:16;;;;;;;21.43;14.87;;;14.30;55.60;;;;;;5039381;28;46489;-72
2023/09/09 04:18:41;;;;;;;26.90;16.10;;;14.30;55.60;;;;;;5031724;28;46453;-70
2023/09/09 04:21:07;;;;;;;25.07;17.10;;;14.30;55.60;;;;;;5033833;28;48806;-71
2023/09/09 04:23:33;;;;;;;20.63;14.43;;;14.30;55.60;;;;;;5032143;28;46402;-71
2023/09/09 04:25:58;;;;;;;20.30;15.27;;;14.30;55.70;;;;;;5047577;28;46690;-71
2023/09/09 04:28:26;;;;;;;21.13;15.20;;;14.30;55.60;;;;;;5033334;28;46524;-70
2023/09/09 04:30:52;;;;;;;20.20;15.17;;;14.30;55.60;;;;;;5032535;28;48943;-71
2023/09/09 04:33:17;;;;;;;17.90;14.10;;;14.30;55.60;;;;;;5040730;28;46744;-70
2023/09/09 04:35:43;;;;;;;20.20;13.80;;;14.20;55.70;;;;;;5045334;28;46512;-70
2023/09/09 04:38:09;;;;;;;19.83;15.17;;;14.20;56.00;;;;;;5030563;28;46502;-70
2023/09/09 04:40:38;;;;;;;18.80;13.40;;;14.10;56.00;;;;;;5033277;28;46494;-70
2023/09/09 04:43:03;;;;;;;23.40;15.93;;;14.20;56.10;;;;;;5038630;28;46469;-70
2023/09/09 04:45:29;;;;;;;21.13;15.97;;;14.20;56.10;;;;;;5031446;28;46637;-71
2023/09/09 04:47:55;;;;;;;19.50;14.57;;;14.20;55.90;;;;;;5033469;28;46532;-70
2023/09/09 04:50:21;;;;;;;23.90;16.23;;;14.20;55.50;;;;;;5031135;28;48890;-69
2023/09/09 04:52:50;;;;;;;23.27;13.73;;;14.30;55.60;;;;;;5044238;28;46472;-70
2023/09/09 04:55:16;;;;;;;19.97;15.00;;;14.30;55.60;;;;;;5031802;28;46586;-69
2023/09/09 04:57:42;;;;;;;19.37;13.60;;;14.30;55.60;;;;;;5034551;28;46550;-70
2023/09/09 05:00:09;;;;;;;19.40;14.80;;;14.40;55.70;;;;;;5044528;28;46899;-70
2023/09/09 05:02:36;;;;;;;19.13;14.60;;;14.40;55.70;;;;;;5033304;28;46687;-69
2023/09/09 05:05:06;;;;;;;18.77;14.70;;;14.40;55.70;;;;;;5033691;28;46507;-70
2023/09/09 05:07:32;;;;;;;17.40;12.87;;;14.50;55.80;;;;;;5030922;28;46553;-71
2023/09/09 05:09:58;;;;;;;21.53;15.37;;;14.50;55.80;;;;;;5044721;28;49112;-70
2023/09/09 05:12:23;;;;;;;18.20;14.73;;;14.60;55.90;;;;;;5032045;28;46965;-69
2023/09/09 05:14:49;;;;;;;18.80;13.63;;;14.70;55.90;;;;;;5044965;28;45857;-69
2023/09/09 05:17:15;;;;;;;15.90;12.33;;;14.80;55.40;;;;;;5030418;28;46484;-69
2023/09/09 05:19:40;;;;;;;18.33;11.30;;;14.80;55.30;;;;;;5033886;28;48246;-70
2023/09/09 05:22:06;;;;;;;21.13;10.73;;;14.90;55.10;;;;;;5031228;28;46421;-70
2023/09/09 05:24:32;;;;;;;18.27;11.80;;;15.00;54.80;;;;;;5032945;28;46522;-69
2023/09/09 05:26:57;;;;;;;15.17;11.60;;;15.10;54.40;;;;;;5032769;28;46537;-69
2023/09/09 05:29:23;;;;;;;23.57;9.97;;;15.30;53.90;;;;;;5048193;28;46174;-70
2023/09/09 05:31:48;;;;;;;14.20;10.13;;;15.60;54.00;;;;;;5036980;28;46797;-70
2023/09/09 05:34:14;;;;;;;14.80;9.10;;;15.80;54.40;;;;;;5029985;28;46479;-70
2023/09/09 05:36:40;;;;;;;18.27;9.40;;;16.00;54.70;;;;;;5032397;28;46190;-70
2023/09/09 05:39:05;;;;;;;16.13;9.27;;;16.20;54.60;;;;;;5032111;28;48139;-71
2023/09/09 05:41:31;;;;;;;16.53;9.93;;;16.60;54.40;;;;;;5048385;28;46461;-70
2023/09/09 05:43:57;;;;;;;19.23;12.80;;;17.00;54.10;;;;;;5040291;28;46424;-74
2023/09/09 05:46:22;;;;;;;20.40;12.30;;;17.30;53.10;;;;;;5038494;28;46430;-72
2023/09/09 05:48:48;;;;;;;18.03;11.60;;;17.80;52.10;;;;;;5029332;28;47375;-70
2023/09/09 05:51:14;;;;;;;16.40;12.83;;;18.30;50.40;;;;;;5027540;28;46457;-70
2023/09/09 05:53:41;;;;;;;20.37;12.10;;;18.60;48.80;;;;;;5038851;28;45827;-70
2023/09/09 05:56:07;;;;;;;22.97;12.30;;;19.00;46.70;;;;;;5028824;28;46122;-70
2023/09/09 05:58:35;;;;;;;17.20;12.17;;;19.30;44.80;;;;;;5046687;28;46595;-71
2023/09/09 06:01:01;;;;;;;14.67;11.80;;;19.50;41.80;;;;;;5030630;28;46681;-70
2023/09/09 06:03:27;;;;;;;18.37;12.43;;;19.50;40.30;;;;;;5031036;28;46504;-70
2023/09/09 06:05:53;;;;;;;16.90;13.30;;;19.20;40.50;;;;;;5030705;28;46487;-71
2023/09/09 06:08:19;;;;;;;16.13;12.50;;;18.90;40.90;;;;;;5044302;28;46862;-70
2023/09/09 06:10:44;;;;;;;14.20;12.17;;;18.80;41.60;;;;;;5031073;28;46537;-71
2023/09/09 06:13:10;;;;;;;14.87;10.50;;;18.70;42.90;;;;;;5032433;28;46414;-71
2023/09/09 06:15:36;;;;;;;20.43;11.53;;;18.90;43.70;;;;;;5031521;28;46466;-70
2023/09/09 06:18:02;;;;;;;13.20;11.03;;;19.40;41.50;;;;;;5029820;28;48193;-72
2023/09/09 06:20:27;;;;;;;16.13;13.23;;;19.80;39.30;;;;;;5038277;28;46451;-71
2023/09/09 06:22:53;;;;;;;23.33;13.70;;;19.60;39.40;;;;;;5031187;28;45938;-72
2023/09/09 06:25:19;;;;;;;16.27;13.43;;;19.50;40.00;;;;;;5031718;28;46672;-70
2023/09/09 06:27:45;;;;;;;17.70;13.87;;;19.50;40.30;;;;;;5031700;28;46649;-70
2023/09/09 06:30:11;;;;;;;20.73;13.37;;;19.50;40.50;;;;;;5029588;28;46220;-70
2023/09/09 06:32:37;;;;;;;20.03;13.60;;;19.60;40.60;;;;;;5029812;28;46485;-71
2023/09/09 06:35:03;;;;;;;19.50;14.20;;;19.60;40.80;;;;;;5029264;28;46418;-69
2023/09/09 06:37:32;;;;;;;20.67;13.23;;;19.80;41.20;;;;;;5033602;28;46683;-70
2023/09/09 06:39:58;;;;;;;22.20;15.40;;;19.80;41.40;;;;;;5044513;28;46459;-72
2023/09/09 06:42:23;;;;;;;19.53;14.23;;;19.90;41.60;;;;;;5034249;28;46523;-71
2023/09/09 06:44:49;;;;;;;22.70;15.03;;;20.00;41.60;;;;;;5030828;28;46779;-70
2023/09/09 06:47:15;;;;;;;20.33;14.20;;;20.10;41.90;;;;;;5053280;27;46615;-69
2023/09/09 06:49:41;;;;;;;23.80;16.47;;;20.30;42.20;;;;;;5031325;28;46517;-70
2023/09/09 06:52:06;;;;;;;26.83;16.23;;;20.40;42.30;;;;;;5029763;28;46467;-69
2023/09/09 06:54:32;;;;;;;21.50;16.53;;;20.60;42.30;;;;;;5037352;28;46466;-70
2023/09/09 06:56:58;;;;;;;19.73;16.00;;;20.80;42.30;;;;;;5046044;28;47618;-69
2023/09/09 06:59:23;;;;;;;22.10;15.80;;;21.00;42.10;;;;;;5038793;28;46739;-71
2023/09/09 07:01:50;;;;;;;23.33;16.27;;;21.10;41.90;;;;;;5036965;28;46453;-68
2023/09/09 07:04:16;;;;;;;18.57;15.37;;;21.30;41.80;;;;;;5032668;28;46406;-70
2023/09/09 07:06:42;;;;;;;19.63;14.87;;;21.40;41.70;;;;;;5028891;28;47960;-71
2023/09/09 07:09:09;;;;;;;22.90;15.53;;;21.50;41.50;;;;;;5031920;28;46827;-70
2023/09/09 07:11:35;;;;;;;20.70;16.83;;;21.70;41.30;;;;;;5034966;28;46445;-69
2023/09/09 07:14:01;;;;;;;14.33;12.00;;;21.80;41.10;;;;;;5032008;28;46422;-69
2023/09/09 07:16:31;;;;;;;18.87;14.53;;;22.00;40.90;;;;;;5035048;28;50040;-71
2023/09/09 07:18:56;;;;;;;24.50;17.20;;;22.10;40.40;;;;;;5031610;28;46394;-71
2023/09/09 07:21:22;;;;;;;24.30;16.20;;;22.30;40.00;;;;;;5030272;28;46667;-71
2023/09/09 07:23:48;;;;;;;20.30;14.43;;;22.40;40.00;;;;;;5037738;28;46429;-72
2023/09/09 07:26:14;;;;;;;21.00;16.70;;;22.50;39.80;;;;;;5036522;28;46694;-70
2023/09/09 07:28:39;;;;;;;21.53;15.77;;;22.60;39.60;;;;;;5031824;28;46404;-72
2023/09/09 07:31:06;;;;;;;24.07;16.07;;;22.70;39.60;;;;;;5034099;28;46765;-72
2023/09/09 07:33:32;;;;;;;20.37;12.67;;;22.90;39.20;;;;;;5038419;28;46727;-76
2023/09/09 07:35:58;;;;;;;20.80;17.30;;;23.00;38.80;;;;;;5033727;28;46482;-73
2023/09/09 07:38:24;;;;;;;29.40;17.67;;;23.10;38.50;;;;;;5051575;28;46836;-72
2023/09/09 07:40:55;;;;;;;29.07;17.13;;;23.20;38.20;;;;;;5036700;28;46701;-71
2023/09/09 07:43:21;;;;;;;18.90;15.20;;;23.20;38.40;;;;;;5035846;28;46481;-72
2023/09/09 07:45:48;;;;;;;21.47;18.47;;;23.30;38.30;;;;;;5054399;28;46691;-70
2023/09/09 07:48:13;;;;;;;25.47;17.90;;;23.50;37.80;;;;;;5035201;28;45898;-70
2023/09/09 07:50:39;;;;;;;20.43;16.60;;;23.60;37.40;;;;;;5035483;28;46438;-72
2023/09/09 07:53:05;;;;;;;21.47;17.50;;;23.70;37.40;;;;;;5036073;28;46454;-72
2023/09/09 07:55:30;;;;;;;21.67;16.50;;;23.70;37.40;;;;;;5042754;28;48078;-70
2023/09/09 07:57:56;;;;;;;24.30;18.00;;;23.70;37.40;;;;;;5035527;28;46452;-71
2023/09/09 08:00:22;;;;;;;25.07;18.93;;;23.80;37.50;;;;;;5033763;28;46560;-71
2023/09/09 08:02:48;;;;;;;23.33;18.43;;;23.90;37.70;;;;;;5037050;28;46578;-72
2023/09/09 08:05:13;;;;;;;25.07;16.47;;;23.90;37.60;;;;;;5038604;28;47584;-71
2023/09/09 08:07:39;;;;;;;25.50;17.77;;;24.00;37.70;;;;;;5029728;28;46464;-70
2023/09/09 08:10:08;;;;;;;27.00;17.30;;;24.20;36.80;;;;;;5036691;28;46469;-72
2023/09/09 08:12:34;;;;;;;24.77;17.40;;;24.40;36.30;;;;;;5040012;28;46449;-73
2023/09/09 08:15:08;;;;;;;22.43;17.10;;;24.40;35.80;;;;;;5031370;28;47093;-73
2023/09/09 08:17:34;;;;;;;22.10;17.00;;;24.40;36.00;;;;;;5039855;28;46497;-73
2023/09/09 08:20:01;;;;;;;16.17;11.23;;;24.30;36.40;;;;;;5046756;28;46601;-72
2023/09/09 08:22:29;;;;;;;17.80;12.37;;;24.40;36.00;;;;;;5034711;28;46433;-72
2023/09/09 08:24:55;;;;;;;26.90;17.70;;;24.70;34.80;;;;;;5032981;28;48818;-72
2023/09/09 08:27:21;;;;;;;20.43;17.33;;;24.80;33.80;;;;;;5030171;28;46741;-73
2023/09/09 08:29:46;;;;;;;20.60;16.83;;;24.80;33.80;;;;;;5039863;28;45917;-72
2023/09/09 08:32:15;;;;;;;18.10;15.47;;;24.90;33.90;;;;;;5035079;28;46487;-73
2023/09/09 08:34:41;;;;;;;19.90;16.00;;;25.00;33.70;;;;;;5036632;28;48630;-73
2023/09/09 08:37:08;;;;;;;24.13;15.93;;;25.00;33.60;;;;;;5036180;28;46364;-71
2023/09/09 08:39:33;;;;;;;17.17;13.90;;;25.00;33.50;;;;;;5038446;28;46653;-72
2023/09/09 08:42:02;;;;;;;21.50;16.13;;;25.00;33.20;;;;;;5042685;22;46622;-70
2023/09/09 08:44:46;;;;;;;19.80;14.90;;;25.10;32.70;;;;;;5084072;27;47229;-69
2023/09/09 08:47:12;;;;;;;21.57;16.07;;;25.20;32.00;;;;;;5086603;27;47086;-68
2023/09/09 08:49:41;;;;;;;22.80;16.20;;;25.30;32.00;;;;;;5085388;27;46461;-67
2023/09/09 08:52:16;;;;;;;19.67;16.00;;;25.40;31.60;;;;;;5086322;27;46541;-69
2023/09/09 08:54:42;;;;;;;20.30;14.30;;;25.50;31.20;;;;;;5089912;27;46492;-68
2023/09/09 08:57:08;;;;;;;16.73;13.47;;;25.50;31.40;;;;;;5079355;27;47143;-67
2023/09/09 08:59:35;;;;;;;16.63;13.80;;;25.70;30.80;;;;;;5074441;27;46749;-68
2023/09/09 09:02:02;;;;;;;16.47;13.37;;;25.90;30.00;;;;;;5088169;27;46647;-67
2023/09/09 09:04:29;;;;;;;20.90;14.23;;;26.00;29.60;;;;;;5084698;27;46553;-68
2023/09/09 09:06:57;;;;;;;21.70;13.07;;;25.90;29.60;;;;;;5086266;27;46775;-67
2023/09/09 09:09:23;;;;;;;14.90;11.37;;;25.80;29.70;;;;;;5088536;27;46735;-67
2023/09/09 09:11:50;;;;;;;19.40;11.10;;;25.90;29.80;;;;;;5076643;27;46548;-68
2023/09/09 09:14:15;;;;;;;16.97;12.80;;;26.00;29.30;;;;;;5082749;27;46523;-68
2023/09/09 09:16:44;;;;;;;16.17;13.27;;;26.20;29.00;;;;;;5084766;27;46362;-68
2023/09/09 09:19:39;;;;;;;16.67;13.37;;;26.40;28.40;;;;;;5079679;27;46587;-68
2023/09/09 09:22:05;;;;;;;15.10;11.43;;;26.40;28.00;;;;;;5068002;27;46520;-68
2023/09/09 09:24:43;;;;;;;14.43;12.33;;;26.50;27.60;;;;;;5082352;27;46472;-68
2023/09/09 09:27:14;;;;;;;19.17;11.93;;;26.50;26.80;;;;;;5084946;27;46480;-69
2023/09/09 09:29:41;;;;;;;20.07;9.63;;;26.60;26.90;;;;;;5082875;27;46474;-69
2023/09/09 09:32:08;;;;;;;23.30;11.90;;;26.70;26.90;;;;;;5080407;27;46584;-68
2023/09/09 09:34:34;;;;;;;16.53;12.10;;;26.80;26.90;;;;;;5082440;27;46473;-68
2023/09/09 09:37:14;;;;;;;14.13;11.20;;;26.80;26.80;;;;;;5082468;27;46889;-68
2023/09/09 09:39:40;;;;;;;16.47;10.53;;;26.90;26.00;;;;;;5082155;27;46664;-69
2023/09/09 09:42:10;;;;;;;13.97;10.63;;;27.00;25.90;;;;;;5080005;27;46454;-68
2023/09/09 09:44:35;;;;;;;12.40;10.10;;;27.00;25.40;;;;;;5082883;27;46363;-68
2023/09/09 09:47:06;;;;;;;15.60;10.63;;;27.20;25.00;;;;;;5081771;27;46508;-69
2023/09/09 09:49:41;;;;;;;13.80;9.47;;;27.20;24.60;;;;;;5083355;27;46469;-69
2023/09/09 09:52:08;;;;;;;15.90;9.20;;;27.20;24.20;;;;;;5083011;27;46862;-68
2023/09/09 09:54:35;;;;;;;16.10;9.10;;;27.10;23.90;;;;;;5080879;27;46696;-68
2023/09/09 09:57:03;;;;;;;15.90;9.10;;;27.20;23.60;;;;;;5082827;27;46487;-68
2023/09/09 09:59:33;;;;;;;11.17;9.40;;;27.40;23.00;;;;;;5079435;27;46473;-68
2023/09/09 10:02:00;;;;;;;17.73;9.20;;;27.50;22.30;;;;;;5080675;27;46795;-68
2023/09/09 10:04:28;;;;;;;11.73;9.30;;;27.50;22.00;;;;;;5082004;27;47497;-67
2023/09/09 10:06:58;;;;;;;10.37;8.13;;;27.50;21.80;;;;;;5084054;27;46548;-68
2023/09/09 10:10:04;;;;;;;10.47;7.80;;;27.60;21.30;;;;;;5081348;27;46481;-68
2023/09/09 10:12:45;;;;;;;11.20;8.50;;;27.70;20.80;;;;;;5081905;27;46628;-68
2023/09/09 10:15:12;;;;;;;12.50;9.40;;;27.80;21.20;;;;;;5082763;27;46790;-67
2023/09/09 10:17:39;;;;;;;10.60;8.13;;;27.90;20.00;;;;;;5081534;27;46804;-69
2023/09/09 10:20:06;;;;;;;12.53;9.20;;;27.90;20.00;;;;;;5083135;27;46726;-69
2023/09/09 10:22:33;;;;;;;10.97;8.40;;;27.80;20.20;;;;;;5083741;27;46677;-68
2023/09/09 10:25:03;;;;;;;14.73;10.23;;;27.90;19.90;;;;;;5083525;27;47050;-68
2023/09/09 10:27:29;;;;;;;15.40;10.10;;;28.00;19.80;;;;;;5079412;27;46569;-68
2023/09/09 10:29:57;;;;;;;11.60;9.60;;;27.80;19.80;;;;;;5080763;27;46866;-68
2023/09/09 10:32:25;;;;;;;19.50;10.30;;;27.70;20.20;;;;;;5076989;27;46831;-68
2023/09/09 10:34:52;;;;;;;13.53;9.07;;;27.80;20.20;;;;;;5081074;27;46726;-68
2023/09/09 10:37:19;;;;;;;13.23;9.63;;;27.80;20.00;;;;;;5081629;27;46433;-68
2023/09/09 10:39:47;;;;;;;13.80;9.70;;;28.00;19.90;;;;;;5083698;27;46816;-68
2023/09/09 10:42:14;;;;;;;17.40;10.70;;;28.00;20.00;;;;;;5085345;27;46542;-67
2023/09/09 10:44:39;;;;;;;16.60;10.43;;;28.00;19.90;;;;;;5079745;27;46434;-68
2023/09/09 10:47:08;;;;;;;12.17;10.47;;;28.00;19.70;;;;;;5081068;27;46511;-68
2023/09/09 10:49:34;;;;;;;12.83;10.13;;;28.00;19.60;;;;;;5070332;27;46600;-67
2023/09/09 10:52:00;;;;;;;15.47;10.13;;;28.00;19.60;;;;;;5084235;27;46403;-67
2023/09/09 10:54:26;;;;;;;11.60;7.83;;;28.10;19.30;;;;;;5081052;27;46720;-69
2023/09/09 10:56:55;;;;;;;24.00;10.03;;;28.10;19.00;;;;;;5083045;27;46450;-68
2023/09/09 10:59:29;;;;;;;19.00;9.27;;;28.10;19.10;;;;;;5082969;27;46507;-69
2023/09/09 11:02:21;;;;;;;11.50;8.57;;;28.30;18.70;;;;;;5079981;27;45933;-69
2023/09/09 11:05:10;;;;;;;13.70;8.20;;;28.30;18.20;;;;;;5071610;27;46263;-68
2023/09/09 11:07:40;;;;;;;13.00;7.60;;;28.30;17.60;;;;;;5081677;27;46577;-68
2023/09/09 11:10:06;;;;;;;12.97;7.87;;;28.20;17.80;;;;;;5083058;27;46460;-68
2023/09/09 11:12:32;;;;;;;9.77;7.60;;;28.20;17.50;;;;;;5083370;27;46520;-67
2023/09/09 11:15:09;;;;;;;12.97;7.90;;;28.30;17.30;;;;;;5073025;27;46530;-67
2023/09/09 11:17:36;;;;;;;10.77;7.73;;;28.20;16.60;;;;;;5076769;27;46308;-66
2023/09/09 11:20:03;;;;;;;11.93;7.07;;;28.30;17.00;;;;;;5079583;27;46499;-67
2023/09/09 11:22:29;;;;;;;10.00;7.80;;;28.40;16.30;;;;;;5079654;27;46458;-66
2023/09/09 11:24:58;;;;;;;11.70;7.63;;;28.60;15.90;;;;;;5079072;27;46639;-67
2023/09/09 11:27:25;;;;;;;12.20;8.07;;;28.60;15.40;;;;;;5077808;27;46871;-68
2023/09/09 11:29:51;;;;;;;13.50;7.30;;;28.60;15.40;;;;;;5077881;27;46501;-67
2023/09/09 11:32:28;;;;;;;9.67;7.70;;;28.70;15.30;;;;;;5079307;27;46536;-68
2023/09/09 11:34:54;;;;;;;14.47;8.50;;;28.90;14.90;;;;;;5079055;27;47280;-67
2023/09/09 11:37:22;;;;;;;10.97;7.60;;;28.90;15.10;;;;;;5079289;27;46441;-68
2023/09/09 11:39:54;;;;;;;14.60;8.17;;;28.70;14.60;;;;;;5078106;27;46856;-67
2023/09/09 11:42:20;;;;;;;12.70;8.37;;;28.70;14.60;;;;;;5080176;27;45913;-68
2023/09/09 11:44:49;;;;;;;18.10;8.23;;;28.70;14.90;;;;;;5080461;27;46423;-68
2023/09/09 11:47:16;;;;;;;16.97;7.77;;;28.80;14.90;;;;;;5077619;27;46430;-67
2023/09/09 11:49:44;;;;;;;9.77;7.20;;;28.90;15.10;;;;;;5079198;27;46717;-67
2023/09/09 11:52:10;;;;;;;9.87;6.90;;;28.90;13.90;;;;;;5079409;27;46304;-67
2023/09/09 11:54:36;;;;;;;11.43;7.83;;;28.80;13.80;;;;;;5078793;27;46431;-67
2023/09/09 11:57:06;;;;;;;15.67;7.80;;;28.60;14.10;;;;;;5079395;27;45845;-67
2023/09/09 11:59:46;;;;;;;13.07;7.73;;;28.60;13.30;;;;;;5079637;27;46465;-67
2023/09/09 12:02:22;;;;;;;13.77;7.80;;;28.50;12.70;;;;;;5080275;27;46761;-67
2023/09/09 12:05:19;;;;;;;9.30;7.90;;;28.50;12.70;;;;;;5076138;27;46468;-69
2023/09/09 12:07:45;;;;;;;10.30;8.53;;;28.60;12.90;;;;;;5064388;27;46419;-69
2023/09/09 12:10:14;;;;;;;14.40;8.57;;;28.60;13.20;;;;;;5083607;27;46753;-68
2023/09/09 12:12:45;;;;;;;13.03;8.73;;;28.70;13.20;;;;;;5079961;27;46209;-68
2023/09/09 12:15:13;;;;;;;13.50;7.67;;;28.70;12.70;;;;;;5072543;27;46562;-71
2023/09/09 12:17:39;;;;;;;14.20;7.80;;;28.80;13.70;;;;;;5078868;27;46781;-68
2023/09/09 12:20:06;;;;;;;12.70;7.83;;;28.80;12.80;;;;;;5075483;27;46481;-68
2023/09/09 12:22:41;;;;;;;11.10;7.90;;;28.90;12.70;;;;;;5085359;27;46563;-69
2023/09/09 12:25:33;;;;;;;10.23;8.10;;;29.00;12.30;;;;;;5083646;27;46443;-68
2023/09/09 12:27:59;;;;;;;14.00;8.87;;;29.00;11.80;;;;;;5085282;27;46735;-68